Time;durP1;ratioP1;P1;durP2;ratioP2;P2;SDS_P1;SDS_P2;PMS_P1;PMS_P2;Temp;Humidity;BMP_temperature;BMP_pressure;BME280_temperature;BME280_humidity;BME280_pressure;Samples;Min_cycle;Max_cycle;Signal;HPM_P1;HPM_P2
2022/05/21 00:00:27;;;;;;;5.90;2.20;;;;;;;18.66;43.67;99886.03;5066878;28;20025;-87
2022/05/21 00:02:53;;;;;;;4.22;1.67;;;;;;;18.92;43.77;99933.06;5051566;28;20025;-87
2022/05/21 00:05:22;;;;;;;2.67;1.88;;;;;;;18.86;43.93;99933.97;5050328;28;20028;-87
2022/05/21 00:07:47;;;;;;;3.63;1.88;;;;;;;18.76;43.74;99928.31;5051283;28;20024;-87
2022/05/21 00:10:15;;;;;;;4.18;1.80;;;;;;;18.30;43.94;99863.50;5050054;28;20513;-87
2022/05/21 00:12:42;;;;;;;2.80;1.77;;;;;;;18.34;44.12;99862.03;5066711;28;20025;-87
2022/05/21 00:15:09;;;;;;;4.25;1.60;;;;;;;18.49;44.24;99893.75;5051298;28;20021;-87
2022/05/21 00:17:34;;;;;;;3.60;1.48;;;;;;;18.76;44.05;99931.00;5049927;28;20087;-87
2022/05/21 00:20:00;;;;;;;3.75;1.73;;;;;;;18.46;43.91;99862.09;5066727;28;20021;-87
2022/05/21 00:22:27;;;;;;;3.40;1.58;;;;;;;18.75;43.71;99908.78;5066535;28;20028;-87
2022/05/21 00:24:52;;;;;;;2.85;2.00;;;;;;;18.61;43.68;99891.19;5051240;28;20017;-87
2022/05/21 00:27:18;;;;;;;3.17;1.70;;;;;;;18.83;43.39;99926.38;5051206;28;20111;-87
2022/05/21 00:29:44;;;;;;;2.75;1.70;;;;;;;18.31;44.01;99843.75;5066464;28;20052;-87
2022/05/21 00:32:09;;;;;;;4.25;2.30;;;;;;;18.03;43.91;99811.34;5051102;28;20025;-87
2022/05/21 00:34:35;;;;;;;3.83;1.70;;;;;;;18.80;43.66;99933.00;5051056;28;20074;-87
2022/05/21 00:37:02;;;;;;;5.03;1.80;;;;;;;18.79;43.92;99926.00;5049816;28;20056;-87
2022/05/21 00:39:28;;;;;;;2.45;2.05;;;;;;;18.66;44.05;99915.44;5053522;28;20028;-87
2022/05/21 00:41:54;;;;;;;2.60;2.08;;;;;;;18.71;44.39;99940.50;5070646;28;20569;-87
2022/05/21 00:44:19;;;;;;;3.72;2.10;;;;;;;18.60;44.39;99927.00;5055121;28;20017;-87
2022/05/21 00:46:46;;;;;;;2.78;2.17;;;;;;;18.37;44.56;99898.19;5055170;28;20318;-87
2022/05/21 00:49:14;;;;;;;6.32;1.77;;;;;;;18.53;44.65;99931.56;5070687;28;20060;-87
2022/05/21 00:51:57;;;;;;;2.10;1.70;;;;;;;18.03;44.89;99872.78;5070299;28;20053;-88
2022/05/21 00:54:27;;;;;;;2.97;1.73;;;;;;;18.42;44.75;99931.25;5053783;28;20041;-87
2022/05/21 00:57:04;;;;;;;2.17;1.65;;;;;;;18.40;44.95;99937.84;5053804;28;20053;-87
2022/05/21 00:59:48;;;;;;;3.78;2.03;;;;;;;18.40;44.58;99941.34;5070359;28;20035;-87
2022/05/21 01:02:20;;;;;;;2.88;1.88;;;;;;;18.31;44.84;99929.28;5053557;28;20029;-88
2022/05/21 01:04:46;;;;;;;;;;;;;;;18.13;45.18;99937.25;5055406;28;20061;-87
2022/05/21 01:07:14;;;;;;;2.80;1.52;;;;;;;18.23;44.84;99931.41;5054626;28;19909;-87
2022/05/21 01:09:42;;;;;;;4.57;1.80;;;;;;;17.84;45.00;99879.13;5053519;28;20485;-87
2022/05/21 01:12:08;;;;;;;2.55;1.50;;;;;;;17.86;45.13;99893.06;5070391;28;20596;-87
2022/05/21 01:14:36;;;;;;;3.88;1.83;;;;;;;18.10;45.20;99940.38;5054639;28;20044;-87
2022/05/21 01:17:02;;;;;;;3.42;1.92;;;;;;;17.28;45.52;99815.78;5053535;28;20128;-87
2022/05/21 01:19:28;;;;;;;3.63;2.20;;;;;;;17.93;45.73;99944.59;5054631;28;20478;-87
2022/05/21 01:21:53;;;;;;;3.42;1.90;;;;;;;17.57;45.83;99921.97;5069979;28;20025;-87
2022/05/21 01:24:19;;;;;;;3.45;2.17;;;;;;;17.26;45.94;99900.56;5069827;28;20413;-87
2022/05/21 01:26:45;;;;;;;3.72;2.30;;;;;;;16.46;46.09;99740.03;5054512;28;20029;-87
2022/05/21 01:29:19;;;;;;;2.85;1.92;;;;;;;17.68;46.26;99913.28;5053048;28;20480;-87
2022/05/21 01:31:52;;;;;;;3.53;1.95;;;;;;;17.65;45.95;99921.69;5054366;28;20025;-87
2022/05/21 01:34:18;;;;;;;2.38;1.92;;;;;;;17.60;46.13;99907.34;5054214;28;20595;-87
2022/05/21 01:36:45;;;;;;;3.80;2.22;;;;;;;17.55;45.79;99891.97;5069770;28;20062;-87
2022/05/21 01:39:10;;;;;;;3.33;1.80;;;;;;;17.19;45.98;99827.72;5053133;28;20029;-87
2022/05/21 01:41:36;;;;;;;3.95;1.80;;;;;;;17.66;46.40;99911.84;5053011;28;20474;-87
2022/05/21 01:46:45;;;;;;;5.15;2.00;;;;;;;17.37;46.53;99916.72;5053936;28;20036;-87
2022/05/21 01:49:11;;;;;;;5.85;2.15;;;;;;;16.89;46.67;99828.25;5052627;28;20020;-87
2022/05/21 01:51:36;;;;;;;6.95;2.00;;;;;;;17.07;46.61;99873.72;5052762;28;20057;-88
2022/05/21 01:54:02;;;;;;;3.17;2.10;;;;;;;16.97;46.78;99865.38;5053894;28;20510;-87
2022/05/21 01:56:27;;;;;;;3.22;1.83;;;;;;;16.87;46.89;99854.31;5052837;28;20541;-88
2022/05/21 01:58:53;;;;;;;3.67;2.15;;;;;;;16.33;47.07;99783.50;5054311;28;20025;-87
2022/05/21 02:01:18;;;;;;;4.30;2.28;;;;;;;16.75;47.30;99878.16;5054005;28;20029;-87
2022/05/21 02:03:44;;;;;;;4.03;2.15;;;;;;;16.95;47.76;99933.28;5052689;28;20023;-86
2022/05/21 02:06:09;;;;;;;3.35;1.85;;;;;;;16.23;47.86;99806.28;5069205;28;20028;-87
2022/05/21 02:08:35;;;;;;;2.60;1.90;;;;;;;16.62;48.13;99885.34;5053506;28;20051;-87
2022/05/21 02:11:02;;;;;;;4.22;1.60;;;;;;;16.47;47.72;99874.91;5069562;28;20450;-87
2022/05/21 02:13:31;;;;;;;2.97;1.63;;;;;;;15.99;47.87;99789.91;5069490;28;20505;-87
2022/05/21 02:15:57;;;;;;;2.33;1.58;;;;;;;16.47;47.63;99870.41;5052228;28;20033;-87
2022/05/21 02:18:22;;;;;;;2.53;1.73;;;;;;;16.41;47.63;99857.91;5052353;28;20107;-87
2022/05/21 02:20:49;;;;;;;5.25;1.77;;;;;;;15.72;47.67;99735.88;5052238;28;20033;-87
2022/05/21 02:23:15;;;;;;;6.18;1.50;;;;;;;16.55;47.11;99872.03;5053634;28;20029;-87
2022/05/21 02:25:41;;;;;;;2.67;1.85;;;;;;;16.08;47.18;99794.00;5053410;28;20025;-87
2022/05/21 02:28:06;;;;;;;2.95;1.73;;;;;;;16.56;47.05;99871.00;5053768;28;20166;-87
2022/05/21 02:30:32;;;;;;;3.15;1.60;;;;;;;16.70;47.52;99898.47;5052142;28;20037;-87
2022/05/21 02:32:58;;;;;;;2.90;1.60;;;;;;;16.20;47.13;99826.16;5053219;28;20433;-87
2022/05/21 02:35:23;;;;;;;3.38;1.50;;;;;;;16.41;47.42;99889.91;5068827;28;20029;-87
2022/05/21 02:40:33;;;;;;;2.75;1.67;;;;;;;16.33;47.69;99892.75;5053561;28;20036;-87
2022/05/21 02:42:59;;;;;;;2.25;1.80;;;;;;;16.15;48.21;99912.03;5052037;28;20025;-87
2022/05/21 02:45:26;;;;;;;1.98;1.70;;;;;;;15.68;48.06;99811.03;5052069;28;20497;-87
2022/05/21 02:47:53;;;;;;;2.47;1.70;;;;;;;16.12;48.49;99898.28;5053166;28;20032;-87
2022/05/21 02:50:23;;;;;;;1.80;1.60;;;;;;;15.32;48.63;99803.38;5052849;28;20039;-86
2022/05/21 02:52:49;;;;;;;2.17;1.67;;;;;;;15.83;48.79;99886.19;5052575;28;20124;-87
2022/05/21 02:55:15;;;;;;;4.63;1.63;;;;;;;15.19;48.75;99782.88;5052674;28;20113;-87
2022/05/21 02:57:42;;;;;;;2.72;1.70;;;;;;;15.10;48.36;99752.19;5052727;28;20421;-87
2022/05/21 03:00:15;;;;;;;3.92;1.77;;;;;;;15.65;48.36;99827.41;5052667;28;20040;-87
2022/05/21 03:02:40;;;;;;;2.92;1.40;;;;;;;16.01;48.13;99897.06;5067742;28;20036;-87
2022/05/21 03:05:07;;;;;;;2.35;1.50;;;;;;;15.52;47.83;99791.72;5051283;28;20021;-87
2022/05/21 03:07:38;;;;;;;4.15;1.80;;;;;;;13.89;48.33;99555.41;5068184;28;20029;-87
2022/05/21 03:10:37;;;;;;;3.35;1.67;;;;;;;15.67;48.07;99847.47;5068160;28;20029;-87
2022/05/21 03:13:01;;;;;;;2.95;1.40;;;;;;;15.97;47.97;99895.84;5052570;28;20421;-87
2022/05/21 03:15:31;;;;;;;1.60;1.20;;;;;;;15.89;48.27;99899.53;5052670;28;20120;-87
2022/05/21 03:17:56;;;;;;;1.63;1.52;;;;;;;15.72;48.35;99878.81;5052785;28;20032;-87
2022/05/21 03:20:22;;;;;;;2.38;1.60;;;;;;;15.67;48.19;99866.13;5052508;28;20037;-87
2022/05/21 03:22:48;;;;;;;4.50;1.77;;;;;;;15.72;48.15;99855.69;5052698;28;20032;-87
2022/05/21 03:25:15;;;;;;;2.35;1.40;;;;;;;16.05;47.58;99892.16;5052433;28;20025;-87
2022/05/21 03:27:41;;;;;;;3.72;1.85;;;;;;;15.99;47.74;99893.78;5052473;28;20029;-87
2022/05/21 03:30:09;;;;;;;2.42;1.45;;;;;;;16.01;47.81;99896.25;5051251;28;20083;-87
2022/05/21 03:32:34;;;;;;;3.45;1.67;;;;;;;15.65;47.79;99856.69;5051086;28;20029;-87
2022/05/21 03:35:00;;;;;;;2.15;1.75;;;;;;;15.25;47.55;99769.59;5052265;28;20031;-87
2022/05/21 03:37:25;;;;;;;4.47;1.60;;;;;;;15.60;47.67;99835.97;5050981;28;20039;-87
2022/05/21 03:39:51;;;;;;;2.58;1.73;;;;;;;14.52;47.46;99626.91;5052070;28;20029;-87
2022/05/21 03:42:17;;;;;;;5.18;1.95;;;;;;;15.70;47.42;99838.28;5067048;28;20103;-87
2022/05/21 03:44:43;;;;;;;2.30;1.55;;;;;;;15.58;47.64;99814.06;5051639;28;20103;-87
2022/05/21 03:47:09;;;;;;;2.35;1.80;;;;;;;15.52;47.86;99812.19;5051902;28;20096;-87
2022/05/21 03:49:34;;;;;;;3.45;1.70;;;;;;;15.93;47.99;99888.47;5067238;28;20120;-87
2022/05/21 03:51:59;;;;;;;3.88;1.73;;;;;;;15.72;47.96;99825.56;5050437;28;20522;-87
2022/05/21 03:54:25;;;;;;;2.08;1.88;;;;;;;15.96;48.00;99874.72;5050436;28;20561;-87
2022/05/21 03:56:51;;;;;;;3.15;2.10;;;;;;;15.63;47.55;99811.66;5050486;28;20035;-86
2022/05/21 03:59:17;;;;;;;2.15;1.90;;;;;;;15.42;47.67;99775.34;5051713;28;20017;-87
2022/05/21 04:01:42;;;;;;;3.47;1.80;;;;;;;15.44;47.63;99773.28;5051615;28;20029;-87
2022/05/21 04:04:07;;;;;;;3.53;1.77;;;;;;;13.89;47.33;99502.31;5051733;28;20036;-87
2022/05/21 04:06:34;;;;;;;2.17;1.70;;;;;;;16.42;47.44;99899.53;5050815;28;20090;-87
2022/05/21 04:08:59;;;;;;;4.90;1.83;;;;;;;16.20;47.09;99860.78;5052117;28;20036;-87
2022/05/21 04:11:25;;;;;;;4.25;1.98;;;;;;;16.38;47.21;99870.84;5051726;28;20414;-88
2022/05/21 04:13:50;;;;;;;3.17;1.85;;;;;;;15.80;47.14;99758.81;5051190;28;20021;-87
2022/05/21 04:16:16;;;;;;;3.08;1.77;;;;;;;16.56;46.72;99912.84;5067163;28;20476;-87
2022/05/21 04:18:41;;;;;;;2.40;2.00;;;;;;;15.91;47.04;99787.47;5051929;28;20021;-87
2022/05/21 04:21:07;;;;;;;4.38;2.00;;;;;;;15.92;47.42;99785.63;5050516;28;20032;-87
2022/05/21 04:23:32;;;;;;;6.70;2.35;;;;;;;16.35;47.38;99866.75;5067341;28;20167;-87
2022/05/21 04:25:58;;;;;;;11.02;2.47;;;;;;;15.67;47.19;99746.34;5051835;28;20032;-87
2022/05/21 04:28:23;;;;;;;4.57;2.40;;;;;;;16.36;47.21;99862.22;5067219;28;20078;-87
2022/05/21 04:30:48;;;;;;;2.67;1.80;;;;;;;16.35;47.26;99847.25;5051821;28;20051;-87
2022/05/21 04:33:14;;;;;;;2.03;1.77;;;;;;;16.38;47.10;99853.00;5066804;28;20496;-87
2022/05/21 04:38:23;;;;;;;2.75;1.70;;;;;;;16.47;46.77;99813.63;5051689;28;20040;-87
2022/05/21 04:40:49;;;;;;;3.40;1.52;;;;;;;16.63;46.51;99831.00;5066538;28;20028;-87
2022/05/21 04:43:14;;;;;;;3.58;1.88;;;;;;;16.88;46.29;99873.81;5051099;28;20484;-87
2022/05/21 04:45:41;;;;;;;3.55;2.00;;;;;;;16.95;45.82;99879.94;5066581;28;20413;-87
2022/05/21 04:48:07;;;;;;;3.25;1.92;;;;;;;16.80;46.03;99866.88;5051122;28;20035;-87
2022/05/21 04:50:38;;;;;;;6.80;2.60;;;;;;;16.96;46.05;99886.91;5066622;28;20057;-87
2022/05/21 04:53:04;;;;;;;7.90;3.22;;;;;;;16.47;45.71;99818.94;5051065;28;20052;-87
2022/05/21 04:55:30;;;;;;;8.85;5.30;;;;;;;16.48;45.89;99789.41;5051874;28;20032;-87
2022/05/21 04:57:55;;;;;;;9.90;5.43;;;;;;;16.25;45.83;99749.09;5066344;28;20024;-87
2022/05/21 05:00:21;;;;;;;15.88;7.28;;;;;;;16.79;46.18;99838.56;5050922;28;20032;-87
2022/05/21 05:02:46;;;;;;;11.40;7.20;;;;;;;16.75;45.88;99821.34;5051196;28;20025;-87
2022/05/21 05:05:13;;;;;;;9.02;5.80;;;;;;;17.22;45.89;99870.81;5050894;28;20021;-87
2022/05/21 05:07:39;;;;;;;9.23;5.07;;;;;;;16.76;45.68;99773.13;5050987;28;20032;-87
2022/05/21 05:10:05;;;;;;;7.50;4.57;;;;;;;17.39;45.65;99857.78;5066246;28;20106;-87
2022/05/21 05:12:34;;;;;;;6.10;3.40;;;;;;;17.24;46.02;99843.91;5049492;28;20035;-86
2022/05/21 05:15:00;;;;;;;4.80;2.58;;;;;;;17.54;46.11;99866.31;5049585;28;20473;-87
2022/05/21 05:17:26;;;;;;;4.50;2.42;;;;;;;17.53;46.48;99871.88;5050843;28;20052;-86
2022/05/21 05:19:54;;;;;;;4.97;2.70;;;;;;;16.96;46.96;99785.56;5051073;28;20057;-87
2022/05/21 05:22:20;;;;;;;3.13;2.47;;;;;;;17.66;46.64;99896.66;5051566;28;20494;-87
2022/05/21 05:24:46;;;;;;;4.55;2.20;;;;;;;17.73;47.13;99877.94;5051647;28;20052;-87
2022/05/21 05:27:11;;;;;;;5.60;2.22;;;;;;;17.79;47.47;99875.22;5055334;28;20478;-87
2022/05/21 05:29:37;;;;;;;2.95;2.10;;;;;;;17.26;47.18;99767.94;5071050;28;20428;-87
2022/05/21 05:32:03;;;;;;;4.75;2.45;;;;;;;17.56;47.26;99813.53;5070638;28;20485;-87
2022/05/21 05:34:28;;;;;;;4.88;2.53;;;;;;;17.53;47.14;99795.28;5069908;28;20032;-87
2022/05/21 05:36:54;;;;;;;2.88;2.50;;;;;;;17.47;47.28;99772.09;5053967;28;20615;-87
2022/05/21 05:39:19;;;;;;;5.28;2.80;;;;;;;17.75;47.17;99793.06;5053973;28;20057;-87
2022/05/21 05:41:44;;;;;;;2.97;1.85;;;;;;;17.98;46.86;99809.34;5054054;28;20029;-88
2022/05/21 05:44:10;;;;;;;3.63;2.63;;;;;;;18.07;46.97;99800.00;5053911;28;20032;-87
2022/05/21 05:46:36;;;;;;;3.55;2.20;;;;;;;18.46;46.57;99859.44;5054337;28;20086;-87
2022/05/21 05:49:02;;;;;;;5.47;2.28;;;;;;;18.12;46.16;99798.50;5053988;28;20112;-87
2022/05/21 05:51:28;;;;;;;5.40;2.60;;;;;;;18.38;46.37;99799.06;5054163;28;20029;-87
2022/05/21 05:53:53;;;;;;;4.95;2.80;;;;;;;18.35;45.87;99793.34;5054236;28;20036;-87
2022/05/21 05:56:19;;;;;;;4.63;2.33;;;;;;;18.78;45.61;99837.97;5054269;28;20119;-87
2022/05/21 06:01:30;;;;;;;3.70;1.77;;;;;;;18.91;42.31;99835.94;5066923;28;20040;-85
2022/05/21 06:03:55;;;;;;;1.90;1.60;;;;;;;18.93;41.45;99828.50;5071569;28;20029;-86
2022/05/21 06:06:21;;;;;;;2.03;1.40;;;;;;;19.35;41.16;99872.22;5070195;28;20021;-86
2022/05/21 06:08:47;;;;;;;1.88;1.55;;;;;;;18.94;40.58;99795.34;5058735;28;20126;-87
2022/05/21 06:11:14;;;;;;;2.75;1.63;;;;;;;19.36;40.62;99831.03;5053713;28;20115;-87
2022/05/21 06:13:40;;;;;;;2.03;1.83;;;;;;;18.89;40.29;99746.22;5053883;28;20025;-87
2022/05/21 06:16:06;;;;;;;4.32;1.63;;;;;;;19.44;40.04;99823.72;5053500;28;20465;-88
2022/05/21 06:18:32;;;;;;;2.00;1.60;;;;;;;19.33;40.09;99795.84;5052568;28;20477;-86
2022/05/21 06:21:03;;;;;;;3.40;1.95;;;;;;;19.31;39.69;99790.69;5053588;28;20025;-86
2022/05/21 06:23:30;;;;;;;3.60;1.63;;;;;;;19.36;39.90;99785.50;5054089;28;20025;-86
2022/05/21 06:25:57;;;;;;;3.83;1.70;;;;;;;19.18;40.02;99744.56;5053729;28;20033;-86
2022/05/21 06:28:23;;;;;;;2.67;1.83;;;;;;;19.40;40.11;99761.75;5053347;28;20021;-86
2022/05/21 06:30:48;;;;;;;1.70;1.60;;;;;;;19.35;40.11;99748.25;5068750;28;20468;-86
2022/05/21 06:33:27;;;;;;;1.77;1.50;;;;;;;19.91;40.14;99827.31;5053004;28;20485;-86
2022/05/21 06:36:10;;;;;;;3.35;2.00;;;;;;;19.67;39.97;99787.09;5052564;28;20059;-86
2022/05/21 06:38:38;;;;;;;2.97;1.60;;;;;;;20.13;39.81;99859.75;5053184;28;20086;-86
2022/05/21 06:41:03;;;;;;;3.35;1.50;;;;;;;19.81;39.89;99801.09;5051942;28;20039;-86
2022/05/21 06:43:28;;;;;;;4.07;1.90;;;;;;;19.98;39.84;99828.00;5053022;28;20029;-86
2022/05/21 06:45:54;;;;;;;2.22;1.60;;;;;;;20.34;39.62;99901.25;5053138;28;20082;-85
2022/05/21 06:48:19;;;;;;;2.22;1.58;;;;;;;20.18;39.79;99822.34;5068410;28;20029;-86
2022/05/21 06:50:46;;;;;;;3.58;1.52;;;;;;;20.18;39.36;99812.44;5052870;28;20039;-86
2022/05/21 06:53:12;;;;;;;1.92;1.65;;;;;;;20.15;39.20;99810.22;5052486;28;20059;-86
2022/05/21 06:55:39;;;;;;;1.80;1.50;;;;;;;20.11;38.99;99774.19;5051564;28;20029;-86
2022/05/21 06:58:05;;;;;;;2.92;1.58;;;;;;;20.23;38.96;99796.47;5052712;28;20033;-86
2022/05/21 07:00:31;;;;;;;2.20;1.45;;;;;;;20.60;38.94;99833.75;5051431;28;20021;-86
2022/05/21 07:02:57;;;;;;;1.48;1.30;;;;;;;20.74;38.17;99824.38;5068118;28;20029;-86
2022/05/21 07:08:28;;;;;;;3.03;1.70;;;;;;;20.78;38.15;99805.94;5051755;28;20429;-86
2022/05/21 07:10:53;;;;;;;3.25;2.05;;;;;;;20.74;38.55;99784.13;5052771;28;20399;-86
2022/05/21 07:13:21;;;;;;;3.13;1.90;;;;;;;20.96;38.44;99796.91;5052667;28;20100;-86
2022/05/21 07:15:49;;;;;;;4.70;1.60;;;;;;;21.01;38.23;99805.88;5067904;28;20025;-85
2022/05/21 07:18:17;;;;;;;3.17;2.30;;;;;;;21.36;38.14;99824.53;5067870;28;20089;-86
2022/05/21 07:20:43;;;;;;;4.10;1.42;;;;;;;21.14;37.95;99764.50;5051303;28;20040;-86
2022/05/21 07:23:09;;;;;;;4.40;1.58;;;;;;;20.25;37.79;99625.44;5051057;28;20060;-85
2022/05/21 07:25:35;;;;;;;2.72;1.40;;;;;;;21.12;37.72;99737.06;5067632;28;20469;-86
2022/05/21 07:28:01;;;;;;;3.53;1.65;;;;;;;21.19;37.40;99745.78;5067771;28;20025;-86
2022/05/21 07:30:27;;;;;;;3.88;1.52;;;;;;;21.77;37.37;99812.63;5067653;28;20162;-86
2022/05/21 07:32:55;;;;;;;2.70;1.70;;;;;;;21.45;37.33;99753.25;5052296;28;20032;-86
2022/05/21 07:35:22;;;;;;;2.75;1.42;;;;;;;21.86;37.04;99816.53;5052028;28;20112;-86
2022/05/21 07:37:47;;;;;;;3.38;1.90;;;;;;;21.26;36.85;99725.00;5051747;28;20036;-86
2022/05/21 07:40:15;;;;;;;5.95;2.28;;;;;;;21.91;36.48;99810.44;5067082;28;20025;-86
2022/05/21 07:42:41;;;;;;;2.85;1.70;;;;;;;21.80;36.62;99785.28;5051603;28;20036;-86
2022/05/21 07:45:08;;;;;;;4.20;1.67;;;;;;;21.46;36.32;99713.75;5051460;28;20017;-86
2022/05/21 07:47:34;;;;;;;4.40;1.80;;;;;;;22.04;36.33;99794.00;5051432;28;20104;-86
2022/05/21 07:50:00;;;;;;;2.33;1.67;;;;;;;21.56;36.00;99697.84;5050094;28;20136;-86
2022/05/21 07:52:27;;;;;;;2.50;2.10;;;;;;;21.69;35.88;99699.38;5050346;28;20052;-86
2022/05/21 07:54:53;;;;;;;1.75;1.42;;;;;;;22.07;35.68;99749.66;5050286;28;20486;-85
2022/05/21 07:57:18;;;;;;;3.90;2.05;;;;;;;22.10;35.58;99744.59;5050329;28;20036;-86
2022/05/21 07:59:44;;;;;;;2.53;1.60;;;;;;;22.13;35.83;99743.28;5051517;28;20069;-85
2022/05/21 08:02:15;;;;;;;2.25;1.65;;;;;;;22.53;35.59;99783.38;5067013;28;20029;-86
2022/05/21 08:04:42;;;;;;;5.97;2.00;;;;;;;22.62;35.28;99771.09;5051358;28;20043;-86
2022/05/21 08:07:07;;;;;;;2.88;1.27;;;;;;;22.74;35.32;99763.72;5050084;28;20029;-87
2022/05/21 08:09:33;;;;;;;3.65;1.77;;;;;;;22.57;35.11;99729.88;5051351;28;20051;-86
2022/05/21 08:11:58;;;;;;;2.08;1.70;;;;;;;22.38;35.07;99667.50;5051547;28;20421;-86
2022/05/21 08:14:23;;;;;;;1.95;1.70;;;;;;;22.86;35.24;99723.22;5066670;28;20032;-86
2022/05/21 08:16:49;;;;;;;2.22;1.70;;;;;;;22.67;34.75;99654.63;5050122;28;20036;-87
2022/05/21 08:19:15;;;;;;;4.25;1.75;;;;;;;22.92;34.79;99667.53;5050208;28;20032;-86
2022/05/21 08:21:41;;;;;;;3.58;1.58;;;;;;;23.48;34.31;99746.16;5051238;28;20036;-86
2022/05/21 08:26:57;;;;;;;3.70;1.63;;;;;;;23.29;33.71;99659.50;5051291;28;20465;-86
2022/05/21 08:29:24;;;;;;;2.75;1.65;;;;;;;23.12;33.46;99619.25;5049558;28;20040;-86
2022/05/21 08:31:50;;;;;;;3.05;1.52;;;;;;;23.21;33.48;99620.41;5049694;28;20035;-86
2022/05/21 08:34:15;;;;;;;1.58;1.48;;;;;;;23.75;33.42;99677.63;5066595;28;20486;-86
2022/05/21 08:36:41;;;;;;;1.92;1.40;;;;;;;23.83;32.47;99653.97;5066945;28;20032;-86
2022/05/21 08:39:09;;;;;;;2.78;1.38;;;;;;;23.74;32.56;99627.47;5067104;28;20066;-86
2022/05/21 08:41:38;;;;;;;2.33;1.42;;;;;;;24.34;32.27;99690.09;5051529;28;20025;-85
2022/05/21 08:44:40;;;;;;;3.97;1.70;;;;;;;23.86;31.99;99599.53;5066784;28;20032;-86
2022/05/21 08:47:15;;;;;;;;;;;;;;;24.38;32.13;99697.41;5049672;28;20102;-85
2022/05/21 08:49:59;;;;;;;3.03;1.40;;;;;;;24.33;31.73;99656.09;5066833;28;20033;-85
2022/05/21 08:52:37;;;;;;;3.00;1.55;;;;;;;24.75;31.90;99687.53;5050123;28;20052;-85
2022/05/21 08:55:06;;;;;;;1.95;1.50;;;;;;;24.87;31.72;99663.78;5050154;28;20029;-85
2022/05/21 08:57:48;;;;;;;1.42;1.30;;;;;;;25.15;31.75;99679.50;5051691;28;20025;-86
2022/05/21 09:00:14;;;;;;;2.15;1.38;;;;;;;25.24;31.73;99675.16;5068704;28;20067;-85
2022/05/21 09:02:40;;;;;;;5.35;1.52;;;;;;;25.02;31.95;99623.28;5055563;28;20501;-85
2022/05/21 09:05:09;;;;;;;2.10;1.63;;;;;;;25.42;31.63;99649.50;5055104;28;20025;-86
2022/05/21 09:08:02;;;;;;;2.08;1.50;;;;;;;25.72;31.59;99659.47;5069957;28;20413;-85
2022/05/21 09:10:32;;;;;;;1.55;1.45;;;;;;;25.75;31.93;99629.16;5069838;28;20176;-87
2022/05/21 09:13:24;;;;;;;2.10;1.90;;;;;;;26.21;31.60;99665.00;5054528;28;20039;-86
2022/05/21 09:18:35;;;;;;;2.50;1.67;;;;;;;26.70;31.07;99660.69;5055030;28;20028;-86
2022/05/21 09:21:15;;;;;;;1.95;1.60;;;;;;;26.89;30.83;99656.25;5053212;28;20024;-86
2022/05/21 09:23:53;;;;;;;1.63;1.42;;;;;;;26.94;30.46;99626.41;5054580;28;20036;-86
2022/05/21 09:26:22;;;;;;;1.20;1.10;;;;;;;26.73;30.47;99557.19;5054200;28;20506;-86
2022/05/21 09:28:48;;;;;;;3.13;1.60;;;;;;;27.02;30.41;99578.94;5054368;28;20028;-86
2022/05/21 09:31:23;;;;;;;2.28;1.33;;;;;;;27.74;30.28;99640.34;5052893;28;20056;-86
2022/05/21 09:33:48;;;;;;;4.95;1.55;;;;;;;27.56;30.02;99575.97;5052738;28;20105;-86
2022/05/21 09:36:18;;;;;;;2.13;1.48;;;;;;;27.91;29.83;99598.34;5069796;28;20060;-86
2022/05/21 09:38:54;;;;;;;5.35;1.45;;;;;;;28.40;29.17;99622.44;5070324;28;20029;-86
2022/05/21 09:41:29;;;;;;;2.92;1.88;;;;;;;28.57;28.90;99622.75;5054679;28;20055;-86
2022/05/21 09:46:44;;;;;;;3.05;1.73;;;;;;;28.34;28.89;99545.69;5055059;28;20032;-85
2022/05/21 09:49:30;;;;;;;2.00;1.25;;;;;;;29.02;28.04;99629.41;5054278;28;20100;-85
2022/05/21 09:52:06;;;;;;;1.75;1.20;;;;;;;29.08;28.03;99624.69;5069319;28;20045;-85
2022/05/21 09:54:38;;;;;;;2.03;1.52;;;;;;;28.68;27.67;99550.84;5052440;28;20454;-85
2022/05/21 09:57:04;;;;;;;2.22;1.58;;;;;;;29.12;27.64;99581.41;5052506;28;20112;-85
2022/05/21 09:59:32;;;;;;;2.38;1.50;;;;;;;29.27;27.54;99584.66;5053648;28;20103;-85
2022/05/21 10:02:13;;;;;;;3.35;1.90;;;;;;;29.16;27.25;99528.84;5069093;28;20033;-85
2022/05/21 10:04:51;;;;;;;;;;;;;;;29.75;26.32;99599.84;5069469;28;20017;-84
2022/05/21 10:13:07;;;;;;;2.20;1.50;;;;;;;29.85;27.41;99548.72;5053354;28;20652;-84
2022/05/21 10:15:45;;;;;;;2.05;1.40;;;;;;;30.14;27.04;99551.09;5053297;28;20119;-84
2022/05/21 10:18:51;;;;;;;2.47;1.42;;;;;;;30.63;26.06;99580.22;5053334;28;20021;-85
2022/05/21 10:21:35;;;;;;;2.03;1.50;;;;;;;30.59;25.49;99551.19;5051905;28;20048;-84
2022/05/21 10:24:49;;;;;;;3.33;1.45;;;;;;;30.85;23.26;99537.72;5053653;28;20016;-84
2022/05/21 10:27:34;;;;;;;3.65;1.77;;;;;;;31.25;24.22;99582.25;5049485;28;20043;-84
2022/05/21 10:30:27;;;;;;;1.90;1.25;;;;;;;31.29;23.18;99547.75;5053330;28;20021;-84
2022/05/21 10:33:16;;;;;;;4.93;1.38;;;;;;;31.58;22.47;99575.31;5052953;28;20053;-84
2022/05/21 10:36:24;;;;;;;4.00;2.10;;;;;;;31.54;22.34;99548.97;5053155;28;20108;-84
2022/05/21 10:38:58;;;;;;;2.38;1.30;;;;;;;31.80;22.38;99566.25;5043421;28;20039;-85
2022/05/21 10:41:55;;;;;;;4.22;1.90;;;;;;;31.98;21.18;99561.66;5053385;28;20021;-85
2022/05/21 10:44:29;;;;;;;1.73;1.10;;;;;;;32.04;21.87;99559.56;5053732;28;20070;-84
2022/05/21 10:47:33;;;;;;;1.48;1.20;;;;;;;32.17;21.55;99558.63;5053684;28;20032;-84
2022/05/21 10:50:04;;;;;;;3.55;1.30;;;;;;;32.31;20.95;99553.81;5046550;28;20036;-84
2022/05/21 10:53:01;;;;;;;1.63;1.30;;;;;;;32.51;20.91;99555.09;5053365;28;20053;-84
2022/05/21 10:55:30;;;;;;;1.98;1.45;;;;;;;32.52;21.06;99543.84;5068704;28;20501;-84
2022/05/21 10:58:10;;;;;;;8.75;1.40;;;;;;;32.66;20.74;99549.13;5053515;28;20441;-84
2022/05/21 11:01:15;;;;;;;2.08;1.30;;;;;;;32.73;19.70;99560.41;5053437;28;20021;-84
2022/05/21 11:04:16;;;;;;;1.85;1.20;;;;;;;32.81;19.94;99556.88;4995214;28;20021;-84
2022/05/21 11:07:11;;;;;;;1.98;1.20;;;;;;;32.76;20.08;99546.06;5058658;28;20418;-83
2022/05/21 11:10:00;;;;;;;2.45;1.25;;;;;;;32.71;18.63;99502.50;5068710;28;20451;-83
2022/05/21 11:12:34;;;;;;;1.17;1.02;;;;;;;32.38;20.34;99430.34;5053310;28;20017;-83
2022/05/21 11:15:16;;;;;;;2.20;1.40;;;;;;;32.50;19.09;99431.28;5053066;28;20537;-84
2022/05/21 11:17:44;;;;;;;1.70;1.20;;;;;;;33.18;19.54;99532.63;5068485;28;20052;-84
2022/05/21 11:20:21;;;;;;;2.17;1.20;;;;;;;33.33;19.20;99536.75;5068349;28;20017;-85
2022/05/21 11:22:56;;;;;;;2.17;1.20;;;;;;;33.22;19.14;99505.41;5053064;28;20029;-84
2022/05/21 11:25:40;;;;;;;4.10;1.67;;;;;;;33.46;18.84;99524.81;5053492;28;20409;-83
2022/05/21 11:28:27;;;;;;;3.08;1.13;;;;;;;33.54;18.69;99518.47;5058269;28;20031;-84
2022/05/21 11:31:01;;;;;;;1.83;1.10;;;;;;;33.39;18.91;99508.88;5070921;28;20009;-83
2022/05/21 11:39:07;;;;;;;1.20;1.10;;;;;;;33.55;18.58;99511.06;5052346;28;20035;-85
2022/05/21 11:42:00;;;;;;;2.30;1.20;;;;;;;33.74;17.92;99505.97;5052383;28;20017;-84
2022/05/21 11:44:58;;;;;;;1.75;1.10;;;;;;;33.79;17.31;99503.00;5067926;28;20513;-85
2022/05/21 11:47:24;;;;;;;1.55;1.10;;;;;;;33.94;18.35;99491.50;5067598;28;20530;-85
2022/05/21 11:49:59;;;;;;;2.05;1.10;;;;;;;34.06;18.11;99497.03;5052006;28;20067;-84
2022/05/21 11:52:28;;;;;;;2.60;1.10;;;;;;;34.12;17.64;99486.66;5051905;28;20403;-84
2022/05/21 11:54:53;;;;;;;2.95;1.45;;;;;;;34.20;17.84;99483.06;5067414;28;20029;-85
2022/05/21 11:57:41;;;;;;;1.52;1.00;;;;;;;34.32;17.75;99485.06;5052344;28;20142;-85
2022/05/21 12:00:29;;;;;;;2.33;1.10;;;;;;;34.11;17.25;99443.97;5067537;28;20386;-85
2022/05/21 12:02:54;;;;;;;3.17;0.90;;;;;;;34.41;17.18;99481.13;5051909;28;20025;-84
2022/05/21 12:05:49;;;;;;;1.65;0.98;;;;;;;34.59;16.99;99478.19;5052134;28;20028;-85
2022/05/21 12:08:36;;;;;;;1.27;0.98;;;;;;;34.35;17.41;99448.78;5046944;28;20037;-85
2022/05/21 12:11:07;;;;;;;3.30;1.30;;;;;;;34.42;17.56;99463.53;5067447;28;20025;-85
2022/05/21 12:13:35;;;;;;;2.88;1.02;;;;;;;34.42;17.54;99468.22;5068032;28;20020;-85
2022/05/21 12:16:15;;;;;;;3.17;1.00;;;;;;;34.54;17.41;99461.97;5085563;28;20071;-84
2022/05/21 12:18:46;;;;;;;2.45;1.08;;;;;;;34.66;16.96;99465.53;5070445;28;20045;-82
2022/05/21 12:21:40;;;;;;;1.77;1.08;;;;;;;34.75;16.93;99451.72;5068619;28;20421;-84